Time;durP1;ratioP1;P1;durP2;ratioP2;P2;SDS_P1;SDS_P2;PMS_P1;PMS_P2;Temp;Humidity;BMP_temperature;BMP_pressure;BME280_temperature;BME280_humidity;BME280_pressure;Samples;Min_cycle;Max_cycle;Signal;HPM_P1;HPM_P2
2022/03/02 00:01:35;;;;;;;7.72;5.85;;;;;;;14.02;51.19;102587.06;6175173;23;20005;-56
2022/03/02 00:04:00;;;;;;;6.85;5.60;;;;;;;14.03;51.41;102585.25;6174274;23;20072;-56
2022/03/02 00:06:25;;;;;;;7.22;5.22;;;;;;;14.01;51.37;102585.34;6175233;23;20016;-55
2022/03/02 00:08:51;;;;;;;8.00;6.15;;;;;;;14.01;51.04;102589.81;6175211;23;20009;-55
2022/03/02 00:11:16;;;;;;;10.00;6.75;;;;;;;14.01;51.26;102590.72;6174917;23;20009;-55
2022/03/02 00:13:42;;;;;;;7.90;5.97;;;;;;;14.01;51.12;102590.72;6174474;23;20015;-56
2022/03/02 00:16:08;;;;;;;9.73;6.20;;;;;;;14.00;51.25;102588.09;6173638;23;20115;-53
2022/03/02 00:18:34;;;;;;;7.35;6.00;;;;;;;14.00;51.53;102594.31;6178061;23;20116;-55
2022/03/02 00:20:59;;;;;;;6.85;5.38;;;;;;;14.00;51.14;102583.59;6181745;23;20333;-55
2022/03/02 00:23:25;;;;;;;6.85;5.93;;;;;;;14.01;51.39;102590.72;6181941;23;20028;-55
2022/03/02 00:25:50;;;;;;;9.02;5.25;;;;;;;14.00;51.41;102590.78;6181990;23;20028;-56
2022/03/02 00:28:15;;;;;;;8.20;5.80;;;;;;;14.00;50.99;102583.59;6179706;23;20020;-56
2022/03/02 00:30:41;;;;;;;7.30;6.55;;;;;;;14.00;51.30;102588.97;6174331;23;20108;-57
2022/03/02 00:33:07;;;;;;;9.10;5.78;;;;;;;13.98;51.15;102588.16;6174848;23;20008;-56
2022/03/02 00:35:34;;;;;;;6.25;5.20;;;;;;;13.99;51.19;102584.56;6174529;23;20071;-55
2022/03/02 00:37:59;;;;;;;7.65;5.78;;;;;;;13.99;51.53;102584.56;6174937;23;20009;-57
2022/03/02 00:40:25;;;;;;;7.85;5.93;;;;;;;13.98;51.39;102585.50;6174956;23;20336;-56
2022/03/02 00:42:51;;;;;;;8.00;6.07;;;;;;;13.98;51.04;102579.28;6175578;23;20414;-57
2022/03/02 00:45:16;;;;;;;9.07;6.18;;;;;;;13.98;51.24;102580.13;6175278;23;20016;-57
2022/03/02 00:47:43;;;;;;;8.43;6.22;;;;;;;13.98;51.29;102579.28;6174092;23;20009;-57
2022/03/02 00:50:09;;;;;;;7.35;5.55;;;;;;;13.99;51.14;102581.00;6174917;23;20005;-56
2022/03/02 00:52:34;;;;;;;8.25;6.10;;;;;;;13.98;51.06;102577.47;6174317;23;20035;-56
2022/03/02 00:55:00;;;;;;;7.85;6.13;;;;;;;13.98;51.12;102573.91;6174755;23;20424;-56
2022/03/02 00:57:25;;;;;;;7.05;5.32;;;;;;;13.98;51.12;102572.09;6173947;23;20020;-56
2022/03/02 00:59:51;;;;;;;7.47;5.53;;;;;;;13.98;51.26;102572.09;6175587;23;20009;-58
2022/03/02 01:02:16;;;;;;;8.43;6.20;;;;;;;13.98;51.21;102568.56;6174862;23;20020;-56
2022/03/02 01:04:42;;;;;;;7.07;5.90;;;;;;;13.98;50.88;102572.09;6176353;23;20005;-56
2022/03/02 01:07:07;;;;;;;7.47;5.75;;;;;;;13.97;50.93;102570.34;6176990;23;20330;-56
2022/03/02 01:09:32;;;;;;;7.40;5.78;;;;;;;13.97;50.84;102559.66;6176458;23;20041;-57
2022/03/02 01:11:58;;;;;;;7.03;5.57;;;;;;;13.97;51.24;102559.66;6176644;23;20405;-55
2022/03/02 01:14:23;;;;;;;6.85;5.90;;;;;;;13.97;51.36;102561.47;6176708;23;20472;-56
2022/03/02 01:16:49;;;;;;;7.55;5.82;;;;;;;13.96;51.21;102555.25;6177260;23;20088;-57
2022/03/02 01:19:15;;;;;;;6.90;5.38;;;;;;;13.96;50.96;102547.22;6176134;23;20032;-57
2022/03/02 01:21:40;;;;;;;6.50;5.57;;;;;;;13.95;50.89;102553.50;6176503;23;20006;-55
2022/03/02 01:24:06;;;;;;;7.57;6.20;;;;;;;13.97;50.97;102556.97;6175864;23;20005;-54
2022/03/02 01:26:32;;;;;;;7.45;5.60;;;;;;;13.96;51.39;102557.94;6176187;23;20008;-55
2022/03/02 01:28:57;;;;;;;7.47;5.68;;;;;;;13.96;50.95;102547.22;6175907;23;20009;-55
2022/03/02 01:31:24;;;;;;;7.43;5.72;;;;;;;13.96;50.86;102544.53;6176744;23;20297;-56
2022/03/02 01:33:50;;;;;;;6.15;5.22;;;;;;;13.96;51.23;102539.19;6177198;23;20001;-57
2022/03/02 01:36:17;;;;;;;10.43;5.80;;;;;;;13.96;50.83;102538.31;6176072;23;20020;-57
2022/03/02 01:38:42;;;;;;;7.72;5.60;;;;;;;13.95;51.07;102542.78;6176351;23;20009;-57
2022/03/02 01:41:09;;;;;;;7.55;5.40;;;;;;;13.95;51.19;102534.75;6176142;23;20063;-57
2022/03/02 01:43:34;;;;;;;7.40;5.45;;;;;;;13.95;51.09;102536.56;6175734;23;20017;-56
2022/03/02 01:45:59;;;;;;;6.10;5.15;;;;;;;13.94;50.97;102538.41;6176275;23;20019;-56
2022/03/02 01:48:25;;;;;;;8.88;6.07;;;;;;;13.95;50.77;102536.56;6175814;23;20016;-56
2022/03/02 01:50:50;;;;;;;7.82;5.75;;;;;;;13.94;51.16;102530.38;6176978;23;20409;-55
2022/03/02 01:53:15;;;;;;;7.38;5.68;;;;;;;13.95;51.23;102537.44;6175963;23;20009;-57
2022/03/02 01:55:41;;;;;;;7.03;5.32;;;;;;;13.94;50.77;102522.31;6175946;23;20020;-54
2022/03/02 01:58:06;;;;;;;8.13;5.65;;;;;;;13.94;50.96;102525.00;6175828;23;20092;-55
2022/03/02 02:00:32;;;;;;;7.57;5.65;;;;;;;13.95;51.15;102531.22;6175887;23;20083;-55
2022/03/02 02:02:57;;;;;;;6.80;5.50;;;;;;;13.95;51.28;102529.41;6175582;23;20019;-56
2022/03/02 02:05:23;;;;;;;6.00;5.10;;;;;;;13.94;50.79;102527.69;6176470;23;20016;-56
2022/03/02 02:07:49;;;;;;;6.80;5.40;;;;;;;13.94;50.67;102529.50;6176344;23;20005;-56
2022/03/02 02:10:15;;;;;;;6.20;4.95;;;;;;;13.93;50.87;102517.03;6175442;23;20751;-57
2022/03/02 02:12:41;;;;;;;6.50;4.93;;;;;;;13.93;50.89;102514.38;6176290;23;20646;-57
2022/03/02 02:15:07;;;;;;;6.85;5.22;;;;;;;13.93;51.00;102507.19;6175423;23;20001;-57
2022/03/02 02:17:33;;;;;;;7.10;5.07;;;;;;;13.93;51.18;102509.88;6175248;23;20005;-57
2022/03/02 02:19:58;;;;;;;6.88;5.22;;;;;;;13.94;50.87;102508.09;6175899;23;20020;-55
2022/03/02 02:22:24;;;;;;;9.18;5.50;;;;;;;13.94;50.84;102511.63;6176179;23;20346;-57
2022/03/02 02:24:49;;;;;;;5.35;4.60;;;;;;;13.94;50.86;102510.75;6176611;23;20027;-57
2022/03/02 02:27:15;;;;;;;6.40;4.78;;;;;;;13.93;50.94;102512.53;6175762;23;20013;-57
2022/03/02 02:29:42;;;;;;;7.00;5.05;;;;;;;13.92;51.25;102504.59;6175850;23;20005;-56
2022/03/02 02:32:08;;;;;;;5.88;4.95;;;;;;;13.91;51.23;102503.72;6174856;23;20005;-55
2022/03/02 02:34:34;;;;;;;6.15;5.13;;;;;;;13.92;50.96;102497.44;6175484;23;20016;-57
2022/03/02 02:37:00;;;;;;;7.53;5.18;;;;;;;13.91;51.15;102503.72;6175683;23;20087;-56
2022/03/02 02:39:27;;;;;;;6.07;4.93;;;;;;;13.92;51.12;102500.13;6175275;23;20001;-57
2022/03/02 02:41:52;;;;;;;5.70;5.05;;;;;;;13.92;50.85;102493.88;6176496;23;20039;-56
2022/03/02 02:44:18;;;;;;;5.47;4.53;;;;;;;13.92;50.90;102493.88;6175827;23;20028;-57
2022/03/02 02:46:44;;;;;;;6.68;5.18;;;;;;;13.91;50.64;102493.03;6175805;23;20037;-57
2022/03/02 02:49:10;;;;;;;5.93;4.43;;;;;;;13.92;51.16;102489.41;6175097;23;20424;-57
2022/03/02 02:51:35;;;;;;;6.20;4.97;;;;;;;13.91;50.69;102487.66;6175896;23;20016;-57
2022/03/02 02:54:02;;;;;;;5.47;4.80;;;;;;;13.91;50.86;102487.66;6175210;23;20000;-56
2022/03/02 02:56:27;;;;;;;6.82;5.28;;;;;;;13.91;51.16;102489.47;6175278;23;20012;-57
2022/03/02 02:58:53;;;;;;;5.53;4.50;;;;;;;13.91;51.11;102486.81;6175784;23;20078;-56
2022/03/02 03:01:19;;;;;;;6.18;4.80;;;;;;;13.90;50.88;102483.28;6175684;23;20033;-57
2022/03/02 03:03:44;;;;;;;5.95;4.80;;;;;;;13.89;51.32;102486.88;6175741;23;20009;-57
2022/03/02 03:06:10;;;;;;;6.22;4.78;;;;;;;13.89;51.18;102481.53;6175343;23;20009;-56
2022/03/02 03:08:36;;;;;;;6.72;4.97;;;;;;;13.90;50.77;102491.31;6175360;23;20020;-57
2022/03/02 03:11:03;;;;;;;5.50;4.40;;;;;;;13.90;50.71;102485.94;6175281;23;20008;-57
2022/03/02 03:13:29;;;;;;;5.75;4.88;;;;;;;13.90;50.83;102485.94;6175171;23;20013;-57
2022/03/02 03:15:54;;;;;;;5.47;4.47;;;;;;;13.90;50.91;102483.28;6175501;23;20028;-57
2022/03/02 03:18:20;;;;;;;6.78;4.55;;;;;;;13.89;50.92;102484.19;6175554;23;20001;-56
2022/03/02 03:20:45;;;;;;;6.65;5.15;;;;;;;13.88;50.63;102478.00;6175766;23;20004;-56
2022/03/02 03:23:12;;;;;;;5.82;4.65;;;;;;;13.88;51.01;102482.50;6175091;23;20033;-55
2022/03/02 03:25:37;;;;;;;7.18;4.68;;;;;;;13.87;51.19;102486.94;6175085;23;20084;-56
2022/03/02 03:28:04;;;;;;;7.95;4.93;;;;;;;13.87;50.94;102483.41;6174740;23;20009;-57
2022/03/02 03:30:30;;;;;;;6.72;4.97;;;;;;;13.87;50.61;102481.59;6175189;23;20009;-56
2022/03/02 03:32:55;;;;;;;6.38;4.47;;;;;;;13.87;51.06;102480.75;6175097;23;20053;-57
2022/03/02 03:35:23;;;;;;;6.07;4.60;;;;;;;13.87;50.61;102486.09;6175976;23;20282;-57
2022/03/02 03:37:48;;;;;;;7.45;5.05;;;;;;;13.86;50.52;102484.38;6175259;23;20084;-56
2022/03/02 03:40:16;;;;;;;5.47;4.68;;;;;;;13.86;51.13;102485.25;6174997;23;20063;-56
2022/03/02 03:42:43;;;;;;;5.38;4.53;;;;;;;13.86;50.68;102479.88;6174298;23;20124;-57
2022/03/02 03:45:10;;;;;;;6.55;5.10;;;;;;;13.86;50.83;102473.66;6175042;23;20009;-57
2022/03/02 03:47:35;;;;;;;5.30;4.13;;;;;;;13.85;50.66;102478.13;6174247;23;20024;-56
2022/03/02 03:50:02;;;;;;;6.78;4.65;;;;;;;13.84;50.90;102471.06;6174983;23;20015;-56
2022/03/02 03:52:27;;;;;;;6.07;4.60;;;;;;;13.86;51.49;102471.00;6175240;23;20017;-57
2022/03/02 03:54:53;;;;;;;6.22;4.65;;;;;;;13.84;50.96;102476.41;6175589;23;20047;-57
2022/03/02 03:57:18;;;;;;;5.30;4.60;;;;;;;13.84;51.07;102465.72;6175253;23;20020;-56
2022/03/02 03:59:44;;;;;;;5.72;4.47;;;;;;;13.84;50.66;102470.19;6174768;23;20080;-57
2022/03/02 04:02:09;;;;;;;6.22;4.75;;;;;;;13.83;51.04;102469.31;6174768;23;20000;-55
2022/03/02 04:04:34;;;;;;;5.65;4.40;;;;;;;13.83;50.60;102471.13;6174836;23;20020;-57
2022/03/02 04:07:00;;;;;;;7.85;4.72;;;;;;;13.84;50.89;102470.19;6174485;23;20088;-57
2022/03/02 04:09:25;;;;;;;5.90;4.90;;;;;;;13.83;50.67;102469.31;6175133;23;20020;-57
2022/03/02 04:11:50;;;;;;;6.28;5.28;;;;;;;13.83;50.73;102463.97;6175938;23;20063;-53
2022/03/02 04:14:16;;;;;;;5.90;4.93;;;;;;;13.84;50.97;102462.13;6175112;23;20271;-56
2022/03/02 04:16:41;;;;;;;7.55;4.90;;;;;;;13.83;50.50;102463.97;6174922;23;20020;-56
2022/03/02 04:19:07;;;;;;;6.22;4.70;;;;;;;13.83;50.74;102449.72;6174737;23;20018;-56
2022/03/02 04:21:33;;;;;;;7.05;4.82;;;;;;;13.83;50.81;102447.03;6175223;23;20315;-56
2022/03/02 04:23:59;;;;;;;5.53;4.25;;;;;;;13.81;50.57;102447.13;6174887;23;20353;-53
2022/03/02 04:26:24;;;;;;;5.93;4.70;;;;;;;13.81;50.40;102447.13;6175252;23;20009;-56
2022/03/02 04:28:50;;;;;;;5.80;4.53;;;;;;;13.81;50.71;102441.75;6175430;23;20424;-55
2022/03/02 04:31:15;;;;;;;6.38;4.65;;;;;;;13.80;50.72;102437.38;6174657;23;20017;-57
2022/03/02 04:33:41;;;;;;;5.30;4.20;;;;;;;13.80;50.40;102432.00;6174638;23;20016;-55
2022/03/02 04:36:06;;;;;;;7.40;5.38;;;;;;;13.81;50.37;102438.22;6174894;23;20152;-57
2022/03/02 04:38:32;;;;;;;5.45;4.38;;;;;;;13.79;50.87;102437.44;6174484;23;19997;-57
2022/03/02 04:40:58;;;;;;;6.32;4.45;;;;;;;13.79;50.36;102429.41;6177166;23;20868;-57
2022/03/02 04:43:24;;;;;;;6.85;4.80;;;;;;;13.79;50.62;102435.63;6176879;23;20095;-57
2022/03/02 04:45:49;;;;;;;6.28;4.10;;;;;;;13.79;50.36;102429.41;6177721;23;20013;-56
2022/03/02 04:48:14;;;;;;;5.80;4.57;;;;;;;13.78;50.73;102428.53;6176131;23;20279;-56
2022/03/02 04:50:40;;;;;;;5.75;4.75;;;;;;;13.78;50.49;102420.50;6176881;23;20024;-57
2022/03/02 04:53:05;;;;;;;5.45;4.53;;;;;;;13.78;50.56;102419.63;6176898;23;20044;-56
2022/03/02 04:55:31;;;;;;;4.93;4.03;;;;;;;13.77;50.21;102424.13;6176397;23;20409;-56
2022/03/02 04:57:59;;;;;;;5.38;4.60;;;;;;;13.77;50.34;102425.94;6176889;23;20127;-56
2022/03/02 05:00:28;;;;;;;6.20;4.53;;;;;;;13.75;50.40;102423.34;6176564;23;20016;-57
2022/03/02 05:02:56;;;;;;;7.95;5.13;;;;;;;13.76;50.41;102413.50;6176335;23;20001;-56
2022/03/02 05:05:23;;;;;;;5.22;4.47;;;;;;;13.75;50.48;102423.34;6177415;23;20004;-56
2022/03/02 05:07:49;;;;;;;6.57;4.68;;;;;;;13.76;50.37;102429.56;6176955;23;20005;-57
2022/03/02 05:10:16;;;;;;;5.85;4.45;;;;;;;13.75;50.45;102417.13;6176055;23;20352;-56
2022/03/02 05:12:42;;;;;;;6.90;4.78;;;;;;;13.75;50.36;102427.84;6176397;23;20087;-56
2022/03/02 05:15:09;;;;;;;5.57;4.55;;;;;;;13.75;50.58;102419.81;6150858;23;20044;-55
2022/03/02 05:17:36;;;;;;;6.43;4.57;;;;;;;13.74;50.35;102426.09;6175705;23;20020;-55
2022/03/02 05:20:02;;;;;;;8.68;4.70;;;;;;;13.74;50.61;102418.06;6176359;23;20298;-57
2022/03/02 05:22:28;;;;;;;5.78;4.35;;;;;;;13.73;50.39;102419.88;6176644;23;20012;-56
2022/03/02 05:24:53;;;;;;;5.90;4.28;;;;;;;13.74;50.14;102416.25;6176750;23;20105;-57
2022/03/02 05:27:18;;;;;;;5.82;4.50;;;;;;;13.73;50.60;102409.19;6176827;23;20405;-57
2022/03/02 05:29:44;;;;;;;5.72;4.55;;;;;;;13.73;50.19;102414.53;6176045;23;20009;-54
2022/03/02 05:32:09;;;;;;;5.78;4.40;;;;;;;13.73;50.25;102409.19;6176110;23;20020;-55
2022/03/02 05:34:35;;;;;;;6.10;4.85;;;;;;;13.73;50.13;102408.28;6176331;23;20013;-57
2022/03/02 05:37:01;;;;;;;4.85;4.10;;;;;;;13.71;50.47;102403.03;6176305;23;20001;-57
2022/03/02 05:39:27;;;;;;;5.75;4.40;;;;;;;13.71;50.38;102400.38;6176326;23;20001;-55
2022/03/02 05:41:52;;;;;;;5.85;4.55;;;;;;;13.72;50.37;102402.09;6177148;23;20016;-58
2022/03/02 05:44:18;;;;;;;6.15;4.20;;;;;;;13.71;50.35;102402.16;6176451;23;20027;-56
2022/03/02 05:46:44;;;;;;;5.90;4.60;;;;;;;13.70;50.37;102403.97;6176190;23;20005;-56
2022/03/02 05:49:10;;;;;;;6.43;4.53;;;;;;;13.69;50.48;102408.47;6175880;23;20009;-56
2022/03/02 05:51:36;;;;;;;5.88;4.63;;;;;;;13.71;50.11;102407.50;6175912;23;20416;-57
2022/03/02 05:54:03;;;;;;;5.25;4.25;;;;;;;13.69;50.43;102403.13;6176059;23;20016;-57
2022/03/02 05:56:29;;;;;;;8.57;4.10;;;;;;;13.69;50.22;102403.13;6175659;23;20013;-57
2022/03/02 05:58:55;;;;;;;5.55;4.50;;;;;;;13.68;50.38;102406.72;6175700;23;20070;-57
2022/03/02 06:01:20;;;;;;;7.13;4.95;;;;;;;13.68;50.21;102406.72;6176412;23;20005;-58
2022/03/02 06:03:46;;;;;;;6.05;4.47;;;;;;;13.68;50.02;102413.91;6175364;23;20012;-55
2022/03/02 06:06:12;;;;;;;5.65;4.38;;;;;;;13.68;50.40;102406.72;6175553;23;20009;-57
2022/03/02 06:08:38;;;;;;;7.53;4.47;;;;;;;13.67;50.33;102405.00;6175725;23;20084;-57
2022/03/02 06:11:04;;;;;;;6.15;4.43;;;;;;;13.67;49.98;102412.19;6175214;23;20069;-54
2022/03/02 06:13:30;;;;;;;7.15;4.75;;;;;;;13.67;50.34;102409.50;6175679;23;20016;-55
2022/03/02 06:15:57;;;;;;;5.65;4.35;;;;;;;13.67;50.04;102412.19;6174482;23;20005;-56
2022/03/02 06:18:23;;;;;;;5.68;4.10;;;;;;;13.66;49.97;102411.28;6175838;23;20016;-57
2022/03/02 06:20:51;;;;;;;5.22;4.15;;;;;;;13.66;50.34;102407.75;6175006;23;20065;-57
2022/03/02 06:23:16;;;;;;;6.72;4.10;;;;;;;13.65;50.21;102412.25;6174844;23;20046;-57
2022/03/02 06:25:42;;;;;;;6.13;4.60;;;;;;;13.64;50.20;102415.88;6175530;23;20032;-57
2022/03/02 06:28:07;;;;;;;5.35;4.10;;;;;;;13.65;49.93;102427.44;6175473;23;20032;-55
2022/03/02 06:30:33;;;;;;;4.82;3.95;;;;;;;13.65;50.40;102414.03;6174898;23;20293;-58
2022/03/02 06:32:58;;;;;;;5.63;4.47;;;;;;;13.65;49.85;102414.94;6175068;23;20089;-57
2022/03/02 06:35:24;;;;;;;5.30;4.03;;;;;;;13.64;50.20;102418.53;6176489;23;20297;-57
2022/03/02 06:37:49;;;;;;;7.75;4.15;;;;;;;13.64;49.75;102415.88;6176063;23;20067;-56
2022/03/02 06:40:15;;;;;;;5.57;4.38;;;;;;;13.64;49.77;102418.53;6174511;23;20009;-57
2022/03/02 06:42:49;;;;;;;6.03;4.30;;;;;;;13.65;49.71;102419.41;6175741;23;20024;-57
2022/03/02 06:45:24;;;;;;;5.07;4.10;;;;;;;13.65;49.92;102416.72;6175674;23;20009;-57
2022/03/02 06:47:57;;;;;;;7.50;4.65;;;;;;;13.63;50.05;102419.50;6175675;23;20058;-56
2022/03/02 06:50:30;;;;;;;5.32;4.70;;;;;;;13.63;49.65;102419.50;6176770;23;20020;-58
2022/03/02 06:53:00;;;;;;;5.20;4.00;;;;;;;13.63;49.94;102424.84;6175150;23;20005;-57
2022/03/02 06:55:26;;;;;;;4.47;4.05;;;;;;;13.63;49.92;102432.88;6174237;23;20067;-56
2022/03/02 06:57:56;;;;;;;5.65;4.32;;;;;;;13.64;49.84;102441.78;6175767;23;20009;-57
2022/03/02 07:00:23;;;;;;;5.18;4.07;;;;;;;13.63;49.53;102432.00;6176372;23;20032;-57
2022/03/02 07:02:58;;;;;;;5.30;3.90;;;;;;;13.65;49.91;102432.78;6174781;23;20032;-57
2022/03/02 07:05:25;;;;;;;4.95;3.70;;;;;;;13.63;50.04;102434.66;6175513;23;20013;-56
2022/03/02 07:07:51;;;;;;;6.47;4.55;;;;;;;13.63;50.06;102440.91;6174578;23;20090;-56
2022/03/02 07:10:17;;;;;;;5.25;4.30;;;;;;;13.63;49.75;102435.56;6175669;23;20013;-56
2022/03/02 07:12:42;;;;;;;5.10;3.78;;;;;;;13.64;49.84;102434.59;6175405;23;20023;-56
2022/03/02 07:15:08;;;;;;;5.30;3.92;;;;;;;13.64;49.95;102436.41;6174904;23;20056;-57
2022/03/02 07:17:34;;;;;;;4.85;3.97;;;;;;;13.63;49.37;102438.25;6175479;23;20088;-56
2022/03/02 07:20:02;;;;;;;4.65;4.07;;;;;;;13.63;49.67;102435.56;6175194;23;20036;-57
2022/03/02 07:22:32;;;;;;;5.70;3.90;;;;;;;13.63;49.94;102440.91;6175071;23;20032;-57
2022/03/02 07:25:20;;;;;;;4.75;4.03;;;;;;;13.66;50.05;102448.78;6174963;23;20075;-55
2022/03/02 07:27:46;;;;;;;4.18;3.60;;;;;;;13.64;49.67;102447.13;6165484;23;20313;-57
2022/03/02 07:30:12;;;;;;;5.85;4.40;;;;;;;13.63;49.51;102446.28;6175042;23;20537;-55
2022/03/02 07:32:41;;;;;;;5.13;4.13;;;;;;;13.63;49.81;102437.34;6174772;23;20333;-57
2022/03/02 07:35:07;;;;;;;4.35;3.70;;;;;;;13.63;49.88;102440.91;6175299;23;20001;-57
2022/03/02 07:37:33;;;;;;;5.28;4.03;;;;;;;13.63;49.66;102443.59;6174838;23;20005;-56
2022/03/02 07:39:59;;;;;;;6.00;4.38;;;;;;;13.63;49.86;102437.34;6174855;23;20384;-57
2022/03/02 07:42:25;;;;;;;4.97;3.75;;;;;;;13.62;49.86;102439.16;6175250;23;20484;-57
2022/03/02 07:44:53;;;;;;;5.38;4.22;;;;;;;13.62;49.80;102433.81;6175785;23;20031;-57
2022/03/02 07:47:18;;;;;;;5.78;3.55;;;;;;;13.63;49.43;102435.56;6175355;23;20041;-57
2022/03/02 07:49:46;;;;;;;4.85;3.85;;;;;;;13.63;49.48;102432.00;6174401;23;20020;-57
2022/03/02 07:52:14;;;;;;;5.32;3.78;;;;;;;13.63;49.87;102430.22;6174101;23;20005;-57
2022/03/02 07:54:41;;;;;;;4.68;3.78;;;;;;;13.63;49.78;102427.53;6174230;23;20394;-57
2022/03/02 07:57:07;;;;;;;5.05;3.58;;;;;;;13.63;49.51;102432.88;6175150;23;20043;-57
2022/03/02 07:59:39;;;;;;;4.35;3.50;;;;;;;13.65;49.44;102432.78;6174891;23;20027;-57
2022/03/02 08:02:07;;;;;;;5.60;3.72;;;;;;;13.64;49.58;102426.56;6174927;23;20012;-57
2022/03/02 08:04:35;;;;;;;4.85;3.72;;;;;;;13.64;49.94;102426.56;6175229;23;20201;-59
2022/03/02 08:07:00;;;;;;;5.47;3.72;;;;;;;13.64;49.85;102421.22;6174329;23;20016;-58
2022/03/02 08:09:26;;;;;;;5.05;3.88;;;;;;;13.64;49.49;102429.25;6174775;23;20013;-57
2022/03/02 08:11:51;;;;;;;4.43;3.30;;;;;;;13.65;49.42;102427.44;6175995;23;20094;-58
2022/03/02 08:14:23;;;;;;;5.10;3.58;;;;;;;13.64;49.81;102415.88;6174757;23;20055;-58
2022/03/02 08:16:50;;;;;;;4.57;3.10;;;;;;;13.65;49.70;102417.59;6175543;23;20338;-57
2022/03/02 08:19:15;;;;;;;4.72;3.72;;;;;;;13.65;49.37;102420.28;6149218;23;20005;-57
2022/03/02 08:21:43;;;;;;;5.78;3.53;;;;;;;13.66;49.62;102415.78;6172520;23;20009;-57
2022/03/02 08:24:12;;;;;;;5.22;3.72;;;;;;;13.66;49.56;102419.31;6174731;23;20436;-57
2022/03/02 08:26:39;;;;;;;5.78;4.05;;;;;;;13.66;49.66;102422.00;6172966;23;20381;-57
2022/03/02 08:29:08;;;;;;;3.92;3.47;;;;;;;13.66;49.93;102419.31;6174252;23;20005;-58
2022/03/02 08:31:36;;;;;;;3.78;3.10;;;;;;;13.66;49.93;102413.97;6172837;23;20000;-56
2022/03/02 08:34:03;;;;;;;5.85;3.38;;;;;;;13.67;49.62;102412.19;6173714;23;20124;-57
2022/03/02 08:36:33;;;;;;;5.57;3.80;;;;;;;13.67;49.81;102415.72;6172119;23;20009;-58
2022/03/02 08:39:04;;;;;;;5.03;3.75;;;;;;;13.68;49.99;102413.91;6173127;23;20016;-57
2022/03/02 08:41:30;;;;;;;4.05;3.25;;;;;;;13.68;49.75;102406.72;6173067;23;20015;-57
2022/03/02 08:43:57;;;;;;;6.68;3.47;;;;;;;13.67;49.68;102405.00;6174103;23;20025;-58
2022/03/02 08:46:24;;;;;;;4.18;3.08;;;;;;;13.67;50.26;102407.69;6174761;23;20023;-58
2022/03/02 08:48:50;;;;;;;4.15;3.35;;;;;;;13.68;49.78;102405.88;6174542;23;20013;-58
2022/03/02 08:51:19;;;;;;;5.95;3.47;;;;;;;13.67;49.79;102405.00;6175166;23;20005;-58
2022/03/02 08:53:45;;;;;;;5.03;3.65;;;;;;;13.69;50.07;102410.28;6175278;23;20016;-58
2022/03/02 08:56:11;;;;;;;4.00;3.22;;;;;;;13.68;50.05;102398.69;6174248;23;20080;-58
2022/03/02 08:58:37;;;;;;;4.93;3.70;;;;;;;13.69;50.25;102412.97;6174992;23;20080;-58
2022/03/02 09:01:03;;;;;;;4.32;2.97;;;;;;;13.69;50.38;102404.94;6175026;23;20013;-58
2022/03/02 09:03:33;;;;;;;4.85;3.45;;;;;;;13.69;50.35;102407.63;6174789;23;20028;-58
2022/03/02 09:06:01;;;;;;;5.00;3.40;;;;;;;13.68;49.99;102403.19;6174909;23;20016;-58
2022/03/02 09:08:27;;;;;;;5.55;3.58;;;;;;;13.69;50.30;102396.91;6174710;23;20077;-58
2022/03/02 09:10:52;;;;;;;4.25;3.80;;;;;;;13.69;50.42;102400.44;6175349;23;20037;-58
2022/03/02 09:13:18;;;;;;;4.57;3.58;;;;;;;13.70;50.32;102395.94;6174125;23;20013;-58
2022/03/02 09:15:43;;;;;;;4.40;3.70;;;;;;;13.69;50.12;102397.75;6175023;23;20036;-58
2022/03/02 09:18:08;;;;;;;4.80;3.50;;;;;;;13.73;49.82;102403.81;6174434;23;20005;-58
2022/03/02 09:20:34;;;;;;;4.57;3.63;;;;;;;13.72;49.96;102396.72;6174781;23;20318;-58
2022/03/02 09:23:02;;;;;;;4.80;3.95;;;;;;;13.73;50.31;102397.59;6174176;23;20013;-59
2022/03/02 09:25:29;;;;;;;6.22;3.60;;;;;;;13.72;50.34;102407.44;6175869;23;20008;-57
2022/03/02 09:27:56;;;;;;;4.47;3.50;;;;;;;13.72;49.90;102396.72;6176475;23;20077;-57
2022/03/02 09:30:22;;;;;;;5.55;3.63;;;;;;;13.73;50.00;102398.47;6177123;23;20417;-57
2022/03/02 09:32:52;;;;;;;5.85;3.75;;;;;;;13.74;49.87;102399.34;6177278;23;20005;-57
2022/03/02 09:35:20;;;;;;;4.15;3.75;;;;;;;13.74;50.28;102391.31;6177435;23;20009;-58
2022/03/02 09:37:53;;;;;;;8.60;3.65;;;;;;;13.74;50.31;102389.47;6177108;23;20016;-58
2022/03/02 09:40:29;;;;;;;4.00;3.38;;;;;;;13.75;49.98;102387.69;6177196;23;20012;-58
2022/03/02 09:42:59;;;;;;;6.05;3.40;;;;;;;13.76;50.34;102381.38;6176273;23;20026;-58
2022/03/02 09:45:28;;;;;;;5.15;3.17;;;;;;;13.75;50.18;102385.88;6176171;23;20024;-58
2022/03/02 09:47:59;;;;;;;4.85;3.53;;;;;;;13.76;50.40;102376.03;6150002;23;20140;-58
2022/03/02 09:50:31;;;;;;;5.72;3.90;;;;;;;13.76;50.45;102376.03;6176816;23;20298;-58
2022/03/02 09:53:00;;;;;;;5.40;3.80;;;;;;;13.77;49.82;102381.28;6176513;23;20023;-57
2022/03/02 09:55:25;;;;;;;4.60;3.88;;;;;;;13.76;50.20;102371.53;6175877;23;20013;-57
2022/03/02 09:57:55;;;;;;;6.70;3.70;;;;;;;13.76;50.21;102362.63;6176991;23;20020;-57
2022/03/02 10:00:22;;;;;;;4.90;4.07;;;;;;;13.76;50.20;102371.53;6176969;23;20037;-58
2022/03/02 10:02:51;;;;;;;5.13;3.80;;;;;;;13.76;50.12;102373.34;6176444;23;20278;-57
2022/03/02 10:05:23;;;;;;;4.43;3.72;;;;;;;13.76;50.32;102370.66;6175844;23;20000;-57
2022/03/02 10:07:55;;;;;;;4.70;3.78;;;;;;;13.76;50.35;102381.38;6177159;23;20143;-58
2022/03/02 10:10:24;;;;;;;4.85;3.90;;;;;;;13.77;50.18;102375.94;6177256;23;20028;-58
2022/03/02 10:12:51;;;;;;;4.68;3.92;;;;;;;13.76;50.18;102371.53;6177269;23;20008;-58
2022/03/02 10:15:18;;;;;;;5.93;3.78;;;;;;;13.76;50.33;102370.66;6177104;23;20016;-58
2022/03/02 10:17:48;;;;;;;3.55;3.25;;;;;;;13.76;49.99;102370.66;6175761;23;20079;-58
2022/03/02 10:20:25;;;;;;;5.03;3.15;;;;;;;13.76;50.35;102368.84;6175229;23;20067;-58
2022/03/02 10:23:24;;;;;;;4.00;3.50;;;;;;;13.78;50.23;102368.78;6176726;23;20020;-57
2022/03/02 10:26:03;;;;;;;4.05;3.65;;;;;;;13.76;49.97;102376.03;6177027;23;20001;-58
2022/03/02 10:28:42;;;;;;;5.95;3.55;;;;;;;13.76;50.14;102371.53;6176134;23;20440;-58
2022/03/02 10:31:28;;;;;;;5.20;3.55;;;;;;;13.79;50.18;102370.50;6176288;23;20063;-57
2022/03/02 10:33:55;;;;;;;5.07;3.78;;;;;;;13.77;50.33;102367.91;6176178;23;20000;-56
2022/03/02 10:36:24;;;;;;;4.35;3.70;;;;;;;13.77;50.10;102367.06;6176446;23;20008;-56
2022/03/02 10:39:06;;;;;;;5.32;3.78;;;;;;;13.78;50.49;102350.88;6151035;23;20028;-57
2022/03/02 10:41:34;;;;;;;;;;;;;;;13.86;50.05;102355.88;6176729;23;20020;-57
2022/03/02 10:44:16;;;;;;;4.85;3.90;;;;;;;13.79;49.91;102349.97;6175816;23;19935;-57
2022/03/02 10:46:53;;;;;;;4.45;3.72;;;;;;;13.80;50.28;102348.13;6175495;23;20066;-57
2022/03/02 10:49:20;;;;;;;5.05;3.58;;;;;;;13.79;49.92;102349.09;6176415;23;20405;-56
2022/03/02 10:51:46;;;;;;;4.55;3.70;;;;;;;13.78;49.96;102356.25;6175536;23;20016;-56
2022/03/02 10:54:17;;;;;;;5.03;3.53;;;;;;;13.79;50.21;102355.31;6175902;23;20464;-56
2022/03/02 10:56:44;;;;;;;5.03;4.07;;;;;;;13.80;50.28;102365.09;6176023;23;20297;-57
2022/03/02 10:59:16;;;;;;;4.82;3.45;;;;;;;13.80;49.97;102358.84;6175821;23;20005;-57
2022/03/02 11:01:42;;;;;;;;;;;;;;;13.89;50.08;102344.97;6176704;23;20043;-56
2022/03/02 11:04:07;;;;;;;5.07;3.72;;;;;;;13.82;49.66;102340.88;6176656;23;19915;-56
2022/03/02 11:06:33;;;;;;;5.05;3.53;;;;;;;13.80;49.77;102348.13;6175185;23;20009;-56
2022/03/02 11:09:00;;;;;;;5.93;4.28;;;;;;;13.79;50.13;102343.75;6150238;23;20471;-56
2022/03/02 11:11:26;;;;;;;4.72;3.72;;;;;;;13.80;50.07;102353.50;6175944;23;20021;-57
2022/03/02 11:13:52;;;;;;;4.72;3.90;;;;;;;13.79;50.22;102335.72;6176312;23;20119;-56
2022/03/02 11:16:20;;;;;;;4.63;4.05;;;;;;;13.79;50.01;102336.56;6176794;23;20005;-57
2022/03/02 11:18:48;;;;;;;7.22;4.13;;;;;;;13.80;50.15;102329.41;6175544;23;20373;-57
2022/03/02 11:21:15;;;;;;;4.28;3.75;;;;;;;13.79;49.82;102333.03;6174659;23;20047;-57
2022/03/02 11:23:52;;;;;;;4.32;3.90;;;;;;;13.80;50.17;102332.06;6175779;23;20047;-57
2022/03/02 11:26:31;;;;;;;5.28;3.88;;;;;;;13.81;49.95;102326.63;6176498;23;20009;-57